sensor_id;sensor_type;location;lat;lon;timestamp;temperature;humidity
50570;DHT22;36525;49.398;7.614;2023-09-18T00:01:06;17.90;99.90
50570;DHT22;36525;49.398;7.614;2023-09-18T00:03:33;18.00;99.90
50570;DHT22;36525;49.398;7.614;2023-09-18T00:06:00;18.00;99.90
50570;DHT22;36525;49.398;7.614;2023-09-18T00:08:27;18.00;99.90
50570;DHT22;36525;49.398;7.614;2023-09-18T00:10:55;18.10;99.90
50570;DHT22;36525;49.398;7.614;2023-09-18T00:13:22;18.10;99.90
50570;DHT22;36525;49.398;7.614;2023-09-18T00:15:53;18.10;99.90
50570;DHT22;36525;49.398;7.614;2023-09-18T00:18:21;18.10;99.90
50570;DHT22;36525;49.398;7.614;2023-09-18T00:20:49;18.10;99.90
50570;DHT22;36525;49.398;7.614;2023-09-18T00:23:19;18.10;99.90
50570;DHT22;36525;49.398;7.614;2023-09-18T00:25:46;18.10;99.90
50570;DHT22;36525;49.398;7.614;2023-09-18T00:28:13;18.10;99.90
50570;DHT22;36525;49.398;7.614;2023-09-18T00:30:47;18.10;99.90
50570;DHT22;36525;49.398;7.614;2023-09-18T00:33:16;18.20;99.90
50570;DHT22;36525;49.398;7.614;2023-09-18T00:35:50;18.30;99.90
50570;DHT22;36525;49.398;7.614;2023-09-18T00:38:18;18.30;99.90
50570;DHT22;36525;49.398;7.614;2023-09-18T00:40:46;18.40;99.90
50570;DHT22;36525;49.398;7.614;2023-09-18T00:43:13;18.50;99.90
50570;DHT22;36525;49.398;7.614;2023-09-18T00:45:48;18.50;99.90
50570;DHT22;36525;49.398;7.614;2023-09-18T00:48:16;18.80;99.90
50570;DHT22;36525;49.398;7.614;2023-09-18T00:50:44;18.90;99.90
50570;DHT22;36525;49.398;7.614;2023-09-18T00:53:20;19.40;99.90
50570;DHT22;36525;49.398;7.614;2023-09-18T00:55:50;19.80;99.90
50570;DHT22;36525;49.398;7.614;2023-09-18T00:58:20;20.00;99.90
50570;DHT22;36525;49.398;7.614;2023-09-18T01:00:47;20.20;99.90
50570;DHT22;36525;49.398;7.614;2023-09-18T01:03:18;20.20;99.90
50570;DHT22;36525;49.398;7.614;2023-09-18T01:05:46;20.30;99.90
50570;DHT22;36525;49.398;7.614;2023-09-18T01:08:14;20.50;99.90
50570;DHT22;36525;49.398;7.614;2023-09-18T01:11:05;20.90;99.90
50570;DHT22;36525;49.398;7.614;2023-09-18T01:13:37;21.00;99.90
50570;DHT22;36525;49.398;7.614;2023-09-18T01:16:33;21.20;99.90
50570;DHT22;36525;49.398;7.614;2023-09-18T01:19:04;21.40;99.90
50570;DHT22;36525;49.398;7.614;2023-09-18T01:21:31;21.50;99.90
50570;DHT22;36525;49.398;7.614;2023-09-18T01:23:58;21.60;99.90
50570;DHT22;36525;49.398;7.614;2023-09-18T01:26:25;21.60;99.90
50570;DHT22;36525;49.398;7.614;2023-09-18T01:28:52;21.60;99.90
50570;DHT22;36525;49.398;7.614;2023-09-18T01:31:21;21.50;99.90
50570;DHT22;36525;49.398;7.614;2023-09-18T01:33:49;21.60;99.90
50570;DHT22;36525;49.398;7.614;2023-09-18T01:36:17;21.60;99.90
50570;DHT22;36525;49.398;7.614;2023-09-18T01:38:46;21.60;99.90
50570;DHT22;36525;49.398;7.614;2023-09-18T01:41:13;21.70;99.90
50570;DHT22;36525;49.398;7.614;2023-09-18T01:43:40;21.70;99.90
50570;DHT22;36525;49.398;7.614;2023-09-18T01:46:08;21.70;99.90
50570;DHT22;36525;49.398;7.614;2023-09-18T01:48:35;21.70;99.90
50570;DHT22;36525;49.398;7.614;2023-09-18T01:51:02;21.60;99.90
50570;DHT22;36525;49.398;7.614;2023-09-18T01:53:29;21.60;99.90
50570;DHT22;36525;49.398;7.614;2023-09-18T01:55:58;21.50;99.90
50570;DHT22;36525;49.398;7.614;2023-09-18T01:58:25;21.50;99.90
50570;DHT22;36525;49.398;7.614;2023-09-18T02:00:52;21.50;99.90
50570;DHT22;36525;49.398;7.614;2023-09-18T02:03:20;21.40;99.90
50570;DHT22;36525;49.398;7.614;2023-09-18T02:06:08;21.40;99.90
50570;DHT22;36525;49.398;7.614;2023-09-18T02:08:38;21.40;99.90
50570;DHT22;36525;49.398;7.614;2023-09-18T02:11:05;21.40;99.90
50570;DHT22;36525;49.398;7.614;2023-09-18T02:13:32;21.50;99.90
50570;DHT22;36525;49.398;7.614;2023-09-18T02:15:59;21.40;99.90
50570;DHT22;36525;49.398;7.614;2023-09-18T02:18:26;21.40;99.90
50570;DHT22;36525;49.398;7.614;2023-09-18T02:20:54;21.50;99.90
50570;DHT22;36525;49.398;7.614;2023-09-18T02:23:21;21.50;99.90
50570;DHT22;36525;49.398;7.614;2023-09-18T02:25:56;21.40;99.90
50570;DHT22;36525;49.398;7.614;2023-09-18T02:28:24;21.30;99.90
50570;DHT22;36525;49.398;7.614;2023-09-18T02:30:51;21.30;99.90
50570;DHT22;36525;49.398;7.614;2023-09-18T02:33:18;21.30;99.90
50570;DHT22;36525;49.398;7.614;2023-09-18T02:35:46;21.30;99.90
50570;DHT22;36525;49.398;7.614;2023-09-18T02:38:13;21.30;99.90
50570;DHT22;36525;49.398;7.614;2023-09-18T02:40:40;21.30;99.90
50570;DHT22;36525;49.398;7.614;2023-09-18T02:43:07;21.20;99.90
50570;DHT22;36525;49.398;7.614;2023-09-18T02:45:35;21.20;99.90
50570;DHT22;36525;49.398;7.614;2023-09-18T02:48:04;21.10;99.90
50570;DHT22;36525;49.398;7.614;2023-09-18T02:50:32;21.10;99.90
50570;DHT22;36525;49.398;7.614;2023-09-18T02:53:02;21.10;99.90
50570;DHT22;36525;49.398;7.614;2023-09-18T02:55:30;21.10;99.90
50570;DHT22;36525;49.398;7.614;2023-09-18T02:57:57;21.00;99.90
50570;DHT22;36525;49.398;7.614;2023-09-18T03:00:24;21.00;99.90
50570;DHT22;36525;49.398;7.614;2023-09-18T03:03:09;21.00;99.90
50570;DHT22;36525;49.398;7.614;2023-09-18T03:05:38;20.90;99.90
50570;DHT22;36525;49.398;7.614;2023-09-18T03:08:06;20.90;99.90
50570;DHT22;36525;49.398;7.614;2023-09-18T03:10:38;20.90;99.90
50570;DHT22;36525;49.398;7.614;2023-09-18T03:13:08;20.80;99.90
50570;DHT22;36525;49.398;7.614;2023-09-18T03:15:36;20.80;99.90
50570;DHT22;36525;49.398;7.614;2023-09-18T03:18:04;20.70;99.90
50570;DHT22;36525;49.398;7.614;2023-09-18T03:20:33;20.70;99.90
50570;DHT22;36525;49.398;7.614;2023-09-18T03:23:01;20.70;99.90
50570;DHT22;36525;49.398;7.614;2023-09-18T03:25:29;20.70;99.90
50570;DHT22;36525;49.398;7.614;2023-09-18T03:28:16;20.70;99.90
50570;DHT22;36525;49.398;7.614;2023-09-18T03:30:43;20.70;99.90
50570;DHT22;36525;49.398;7.614;2023-09-18T03:33:10;20.70;99.90
50570;DHT22;36525;49.398;7.614;2023-09-18T03:35:56;20.60;99.90
50570;DHT22;36525;49.398;7.614;2023-09-18T03:38:25;20.60;99.90
50570;DHT22;36525;49.398;7.614;2023-09-18T03:40:53;20.40;99.90
50570;DHT22;36525;49.398;7.614;2023-09-18T03:43:20;20.20;99.90
50570;DHT22;36525;49.398;7.614;2023-09-18T03:45:48;20.10;99.90
50570;DHT22;36525;49.398;7.614;2023-09-18T03:48:16;20.00;99.90
50570;DHT22;36525;49.398;7.614;2023-09-18T03:50:43;19.80;99.90
50570;DHT22;36525;49.398;7.614;2023-09-18T03:53:11;19.90;99.90
50570;DHT22;36525;49.398;7.614;2023-09-18T03:55:38;19.80;99.90
50570;DHT22;36525;49.398;7.614;2023-09-18T03:58:05;19.80;99.90
50570;DHT22;36525;49.398;7.614;2023-09-18T04:00:33;19.70;99.90
50570;DHT22;36525;49.398;7.614;2023-09-18T04:03:00;19.60;99.90
50570;DHT22;36525;49.398;7.614;2023-09-18T04:05:27;19.60;99.90
50570;DHT22;36525;49.398;7.614;2023-09-18T04:07:55;19.50;99.90
50570;DHT22;36525;49.398;7.614;2023-09-18T04:10:26;19.50;99.90
50570;DHT22;36525;49.398;7.614;2023-09-18T04:12:53;19.40;99.90
50570;DHT22;36525;49.398;7.614;2023-09-18T04:15:21;19.40;99.90
50570;DHT22;36525;49.398;7.614;2023-09-18T04:17:49;19.40;99.90
50570;DHT22;36525;49.398;7.614;2023-09-18T04:20:16;19.30;99.90
50570;DHT22;36525;49.398;7.614;2023-09-18T04:22:46;19.30;99.90
50570;DHT22;36525;49.398;7.614;2023-09-18T04:25:17;19.20;99.90
50570;DHT22;36525;49.398;7.614;2023-09-18T04:27:46;19.20;99.90
50570;DHT22;36525;49.398;7.614;2023-09-18T04:30:17;19.10;99.90
50570;DHT22;36525;49.398;7.614;2023-09-18T04:32:46;19.10;99.90
50570;DHT22;36525;49.398;7.614;2023-09-18T04:35:14;19.00;99.90
50570;DHT22;36525;49.398;7.614;2023-09-18T04:37:41;19.00;99.90
50570;DHT22;36525;49.398;7.614;2023-09-18T04:40:08;19.00;99.90
50570;DHT22;36525;49.398;7.614;2023-09-18T04:42:38;19.00;99.90
50570;DHT22;36525;49.398;7.614;2023-09-18T04:45:07;19.00;99.90
50570;DHT22;36525;49.398;7.614;2023-09-18T04:47:34;19.00;99.90
50570;DHT22;36525;49.398;7.614;2023-09-18T04:50:02;19.00;99.90
50570;DHT22;36525;49.398;7.614;2023-09-18T04:52:37;19.00;99.90
50570;DHT22;36525;49.398;7.614;2023-09-18T04:55:04;18.90;99.90
50570;DHT22;36525;49.398;7.614;2023-09-18T04:57:35;18.90;99.90
50570;DHT22;36525;49.398;7.614;2023-09-18T05:00:03;18.90;99.90
50570;DHT22;36525;49.398;7.614;2023-09-18T05:02:44;18.90;99.90
50570;DHT22;36525;49.398;7.614;2023-09-18T05:05:12;18.90;99.90
50570;DHT22;36525;49.398;7.614;2023-09-18T05:07:41;18.90;99.90
50570;DHT22;36525;49.398;7.614;2023-09-18T05:10:09;18.90;99.90
50570;DHT22;36525;49.398;7.614;2023-09-18T05:12:40;18.90;99.90
50570;DHT22;36525;49.398;7.614;2023-09-18T05:15:08;18.90;99.90
50570;DHT22;36525;49.398;7.614;2023-09-18T05:17:44;18.80;99.90
50570;DHT22;36525;49.398;7.614;2023-09-18T05:20:19;18.90;99.90
50570;DHT22;36525;49.398;7.614;2023-09-18T05:22:46;18.80;99.90
50570;DHT22;36525;49.398;7.614;2023-09-18T05:25:14;18.80;99.90
50570;DHT22;36525;49.398;7.614;2023-09-18T05:27:44;18.70;99.90
50570;DHT22;36525;49.398;7.614;2023-09-18T05:30:18;18.70;99.90
50570;DHT22;36525;49.398;7.614;2023-09-18T05:32:48;18.70;99.90
50570;DHT22;36525;49.398;7.614;2023-09-18T05:35:16;18.70;99.90
50570;DHT22;36525;49.398;7.614;2023-09-18T05:37:44;18.70;99.90
50570;DHT22;36525;49.398;7.614;2023-09-18T05:40:12;18.70;99.90
50570;DHT22;36525;49.398;7.614;2023-09-18T05:42:41;18.70;99.90
50570;DHT22;36525;49.398;7.614;2023-09-18T05:45:13;18.60;99.90
50570;DHT22;36525;49.398;7.614;2023-09-18T05:47:42;18.70;99.90
50570;DHT22;36525;49.398;7.614;2023-09-18T05:50:11;18.60;99.90
50570;DHT22;36525;49.398;7.614;2023-09-18T05:52:46;18.60;99.90
50570;DHT22;36525;49.398;7.614;2023-09-18T05:55:14;18.60;99.90
50570;DHT22;36525;49.398;7.614;2023-09-18T05:57:42;18.60;99.90
50570;DHT22;36525;49.398;7.614;2023-09-18T06:00:09;18.60;99.90
50570;DHT22;36525;49.398;7.614;2023-09-18T06:02:40;18.50;99.90
50570;DHT22;36525;49.398;7.614;2023-09-18T06:05:08;18.60;99.90
50570;DHT22;36525;49.398;7.614;2023-09-18T06:07:39;18.60;99.90
50570;DHT22;36525;49.398;7.614;2023-09-18T06:10:06;18.60;99.90
50570;DHT22;36525;49.398;7.614;2023-09-18T06:12:34;18.50;99.90
50570;DHT22;36525;49.398;7.614;2023-09-18T06:15:01;18.50;99.90
50570;DHT22;36525;49.398;7.614;2023-09-18T06:17:28;18.60;99.90
50570;DHT22;36525;49.398;7.614;2023-09-18T06:19:55;18.60;99.90
50570;DHT22;36525;49.398;7.614;2023-09-18T06:22:23;18.60;99.90
50570;DHT22;36525;49.398;7.614;2023-09-18T06:24:50;18.70;99.90
50570;DHT22;36525;49.398;7.614;2023-09-18T06:27:17;18.60;99.90
50570;DHT22;36525;49.398;7.614;2023-09-18T06:29:45;18.60;99.90
50570;DHT22;36525;49.398;7.614;2023-09-18T06:32:12;18.60;99.90
50570;DHT22;36525;49.398;7.614;2023-09-18T06:34:40;18.70;99.90
50570;DHT22;36525;49.398;7.614;2023-09-18T06:37:10;18.70;99.90
50570;DHT22;36525;49.398;7.614;2023-09-18T06:39:39;18.70;99.90
50570;DHT22;36525;49.398;7.614;2023-09-18T06:42:09;18.80;99.90
50570;DHT22;36525;49.398;7.614;2023-09-18T06:44:37;18.70;99.90
50570;DHT22;36525;49.398;7.614;2023-09-18T06:47:04;18.80;99.90
50570;DHT22;36525;49.398;7.614;2023-09-18T06:49:32;18.80;99.90
50570;DHT22;36525;49.398;7.614;2023-09-18T06:51:59;18.80;99.90
50570;DHT22;36525;49.398;7.614;2023-09-18T06:54:26;18.80;99.90
50570;DHT22;36525;49.398;7.614;2023-09-18T06:56:53;18.90;99.90
50570;DHT22;36525;49.398;7.614;2023-09-18T06:59:21;18.90;99.90
50570;DHT22;36525;49.398;7.614;2023-09-18T07:01:48;18.90;99.90
50570;DHT22;36525;49.398;7.614;2023-09-18T07:04:15;18.90;99.90
50570;DHT22;36525;49.398;7.614;2023-09-18T07:06:42;19.00;99.90
50570;DHT22;36525;49.398;7.614;2023-09-18T07:09:09;19.10;99.90
50570;DHT22;36525;49.398;7.614;2023-09-18T07:11:39;19.10;99.90
50570;DHT22;36525;49.398;7.614;2023-09-18T07:14:06;19.10;99.90
50570;DHT22;36525;49.398;7.614;2023-09-18T07:16:34;19.10;99.90
50570;DHT22;36525;49.398;7.614;2023-09-18T07:19:02;19.10;99.90
50570;DHT22;36525;49.398;7.614;2023-09-18T07:21:32;19.20;99.90
50570;DHT22;36525;49.398;7.614;2023-09-18T07:24:00;19.20;99.90
50570;DHT22;36525;49.398;7.614;2023-09-18T07:26:27;19.30;99.90
50570;DHT22;36525;49.398;7.614;2023-09-18T07:28:55;19.20;99.90
50570;DHT22;36525;49.398;7.614;2023-09-18T07:31:22;19.20;99.90
50570;DHT22;36525;49.398;7.614;2023-09-18T07:33:49;19.30;99.90
50570;DHT22;36525;49.398;7.614;2023-09-18T07:36:16;19.40;99.90
50570;DHT22;36525;49.398;7.614;2023-09-18T07:38:45;19.40;99.90
50570;DHT22;36525;49.398;7.614;2023-09-18T07:41:13;19.50;99.90
50570;DHT22;36525;49.398;7.614;2023-09-18T07:43:42;19.50;99.90
50570;DHT22;36525;49.398;7.614;2023-09-18T07:46:09;19.40;99.90
50570;DHT22;36525;49.398;7.614;2023-09-18T07:48:36;19.40;99.90
50570;DHT22;36525;49.398;7.614;2023-09-18T07:51:04;19.30;99.90
50570;DHT22;36525;49.398;7.614;2023-09-18T07:53:32;19.30;99.90
50570;DHT22;36525;49.398;7.614;2023-09-18T07:55:59;19.30;99.90
50570;DHT22;36525;49.398;7.614;2023-09-18T07:58:32;19.20;99.90
50570;DHT22;36525;49.398;7.614;2023-09-18T08:01:00;19.20;99.90
50570;DHT22;36525;49.398;7.614;2023-09-18T08:03:27;19.30;99.90
50570;DHT22;36525;49.398;7.614;2023-09-18T08:05:55;19.30;99.90
50570;DHT22;36525;49.398;7.614;2023-09-18T08:08:23;19.20;99.90
50570;DHT22;36525;49.398;7.614;2023-09-18T08:10:52;19.30;99.90
50570;DHT22;36525;49.398;7.614;2023-09-18T08:13:19;19.20;99.90
50570;DHT22;36525;49.398;7.614;2023-09-18T08:15:47;19.20;99.90
50570;DHT22;36525;49.398;7.614;2023-09-18T08:18:14;19.20;99.90
50570;DHT22;36525;49.398;7.614;2023-09-18T08:20:44;19.30;99.90
50570;DHT22;36525;49.398;7.614;2023-09-18T08:23:12;19.30;99.90
50570;DHT22;36525;49.398;7.614;2023-09-18T08:25:40;19.40;99.90
50570;DHT22;36525;49.398;7.614;2023-09-18T08:28:08;19.20;99.90
50570;DHT22;36525;49.398;7.614;2023-09-18T08:30:36;19.30;99.90
50570;DHT22;36525;49.398;7.614;2023-09-18T08:33:06;19.20;99.90
50570;DHT22;36525;49.398;7.614;2023-09-18T08:35:33;19.20;99.90
50570;DHT22;36525;49.398;7.614;2023-09-18T08:38:00;19.30;99.90
50570;DHT22;36525;49.398;7.614;2023-09-18T08:40:27;19.50;99.90
50570;DHT22;36525;49.398;7.614;2023-09-18T08:42:58;19.70;99.90
50570;DHT22;36525;49.398;7.614;2023-09-18T08:45:46;19.80;99.90
50570;DHT22;36525;49.398;7.614;2023-09-18T08:48:18;19.90;99.90
50570;DHT22;36525;49.398;7.614;2023-09-18T08:50:45;19.80;99.90
50570;DHT22;36525;49.398;7.614;2023-09-18T08:53:14;19.90;99.90
50570;DHT22;36525;49.398;7.614;2023-09-18T08:55:41;20.00;99.90
50570;DHT22;36525;49.398;7.614;2023-09-18T08:58:09;20.20;99.90
50570;DHT22;36525;49.398;7.614;2023-09-18T09:00:37;20.20;99.90
50570;DHT22;36525;49.398;7.614;2023-09-18T09:03:06;20.30;99.90
50570;DHT22;36525;49.398;7.614;2023-09-18T09:05:33;20.30;99.90
50570;DHT22;36525;49.398;7.614;2023-09-18T09:08:00;20.10;99.90
50570;DHT22;36525;49.398;7.614;2023-09-18T09:10:28;20.00;99.90
50570;DHT22;36525;49.398;7.614;2023-09-18T09:12:58;20.10;99.90
50570;DHT22;36525;49.398;7.614;2023-09-18T09:15:32;20.10;99.90
50570;DHT22;36525;49.398;7.614;2023-09-18T09:18:04;20.40;99.90
50570;DHT22;36525;49.398;7.614;2023-09-18T09:20:34;21.10;99.90
50570;DHT22;36525;49.398;7.614;2023-09-18T09:23:04;21.00;99.90
50570;DHT22;36525;49.398;7.614;2023-09-18T09:25:34;20.90;99.90
50570;DHT22;36525;49.398;7.614;2023-09-18T09:28:03;20.90;99.90
50570;DHT22;36525;49.398;7.614;2023-09-18T09:30:33;20.80;99.90
50570;DHT22;36525;49.398;7.614;2023-09-18T09:33:04;20.90;99.90
50570;DHT22;36525;49.398;7.614;2023-09-18T09:35:33;20.80;99.90
50570;DHT22;36525;49.398;7.614;2023-09-18T09:40:38;20.70;99.90
50570;DHT22;36525;49.398;7.614;2023-09-18T09:43:09;20.60;99.90
50570;DHT22;36525;49.398;7.614;2023-09-18T09:45:37;20.60;99.90
50570;DHT22;36525;49.398;7.614;2023-09-18T09:48:07;20.40;99.90
50570;DHT22;36525;49.398;7.614;2023-09-18T09:50:45;20.40;99.90
50570;DHT22;36525;49.398;7.614;2023-09-18T09:53:16;20.50;99.90
50570;DHT22;36525;49.398;7.614;2023-09-18T09:55:44;20.50;99.90
50570;DHT22;36525;49.398;7.614;2023-09-18T09:58:12;20.30;99.90
50570;DHT22;36525;49.398;7.614;2023-09-18T10:00:46;20.50;99.90
50570;DHT22;36525;49.398;7.614;2023-09-18T10:03:18;20.50;99.90
50570;DHT22;36525;49.398;7.614;2023-09-18T10:05:51;20.40;99.90
50570;DHT22;36525;49.398;7.614;2023-09-18T10:08:25;20.60;99.90
50570;DHT22;36525;49.398;7.614;2023-09-18T10:10:56;20.50;99.90
50570;DHT22;36525;49.398;7.614;2023-09-18T10:16:17;20.80;99.90
50570;DHT22;36525;49.398;7.614;2023-09-18T10:22:14;20.90;99.90
50570;DHT22;36525;49.398;7.614;2023-09-18T10:24:47;21.10;99.90
50570;DHT22;36525;49.398;7.614;2023-09-18T10:27:18;21.00;99.90
50570;DHT22;36525;49.398;7.614;2023-09-18T10:29:49;21.00;99.90
50570;DHT22;36525;49.398;7.614;2023-09-18T10:32:18;21.00;99.90
50570;DHT22;36525;49.398;7.614;2023-09-18T10:34:50;21.10;99.90
50570;DHT22;36525;49.398;7.614;2023-09-18T10:37:17;21.00;99.90
50570;DHT22;36525;49.398;7.614;2023-09-18T10:39:45;21.10;99.90
50570;DHT22;36525;49.398;7.614;2023-09-18T10:42:17;21.00;99.90
50570;DHT22;36525;49.398;7.614;2023-09-18T10:44:45;20.90;99.90
50570;DHT22;36525;49.398;7.614;2023-09-18T10:47:15;20.80;99.90
50570;DHT22;36525;49.398;7.614;2023-09-18T10:49:43;20.80;99.90
50570;DHT22;36525;49.398;7.614;2023-09-18T10:52:13;20.70;99.90
50570;DHT22;36525;49.398;7.614;2023-09-18T10:54:41;20.60;99.90
50570;DHT22;36525;49.398;7.614;2023-09-18T10:57:08;20.60;99.90
50570;DHT22;36525;49.398;7.614;2023-09-18T10:59:44;20.60;99.90
50570;DHT22;36525;49.398;7.614;2023-09-18T11:02:15;20.90;99.90
50570;DHT22;36525;49.398;7.614;2023-09-18T11:04:44;20.80;99.90
50570;DHT22;36525;49.398;7.614;2023-09-18T11:07:22;20.90;99.90
50570;DHT22;36525;49.398;7.614;2023-09-18T11:09:51;20.70;99.90
50570;DHT22;36525;49.398;7.614;2023-09-18T11:12:18;20.70;99.90
50570;DHT22;36525;49.398;7.614;2023-09-18T11:17:38;20.80;99.90
50570;DHT22;36525;49.398;7.614;2023-09-18T11:22:58;21.00;99.90
50570;DHT22;36525;49.398;7.614;2023-09-18T11:28:16;21.00;99.90
50570;DHT22;36525;49.398;7.614;2023-09-18T11:30:51;21.00;99.90
50570;DHT22;36525;49.398;7.614;2023-09-18T11:33:40;21.30;99.90
50570;DHT22;36525;49.398;7.614;2023-09-18T11:36:11;21.40;99.90
50570;DHT22;36525;49.398;7.614;2023-09-18T11:39:00;21.60;99.90
50570;DHT22;36525;49.398;7.614;2023-09-18T11:41:33;21.80;99.90
50570;DHT22;36525;49.398;7.614;2023-09-18T11:46:48;21.60;99.90
50570;DHT22;36525;49.398;7.614;2023-09-18T11:49:22;21.60;99.90
50570;DHT22;36525;49.398;7.614;2023-09-18T11:51:54;21.50;99.90
50570;DHT22;36525;49.398;7.614;2023-09-18T11:54:21;21.40;99.90
50570;DHT22;36525;49.398;7.614;2023-09-18T11:56:49;21.60;99.90
50570;DHT22;36525;49.398;7.614;2023-09-18T11:59:16;21.60;99.90
50570;DHT22;36525;49.398;7.614;2023-09-18T12:01:53;21.50;99.90
50570;DHT22;36525;49.398;7.614;2023-09-18T12:04:27;21.50;99.90
50570;DHT22;36525;49.398;7.614;2023-09-18T12:06:55;21.60;99.90
50570;DHT22;36525;49.398;7.614;2023-09-18T12:09:22;21.60;99.90
50570;DHT22;36525;49.398;7.614;2023-09-18T12:11:52;21.70;99.90
50570;DHT22;36525;49.398;7.614;2023-09-18T12:14:21;21.80;99.90
50570;DHT22;36525;49.398;7.614;2023-09-18T12:16:49;22.20;99.90
50570;DHT22;36525;49.398;7.614;2023-09-18T12:19:18;22.50;99.90
50570;DHT22;36525;49.398;7.614;2023-09-18T12:21:48;22.50;99.90
50570;DHT22;36525;49.398;7.614;2023-09-18T12:24:25;22.50;99.90
50570;DHT22;36525;49.398;7.614;2023-09-18T12:26:53;22.30;99.90
50570;DHT22;36525;49.398;7.614;2023-09-18T12:29:21;22.30;99.90
50570;DHT22;36525;49.398;7.614;2023-09-18T12:31:49;22.10;99.90
50570;DHT22;36525;49.398;7.614;2023-09-18T12:34:20;22.00;99.90
50570;DHT22;36525;49.398;7.614;2023-09-18T12:36:50;22.00;99.90
50570;DHT22;36525;49.398;7.614;2023-09-18T12:39:18;21.90;99.90
50570;DHT22;36525;49.398;7.614;2023-09-18T12:41:48;21.80;99.90
50570;DHT22;36525;49.398;7.614;2023-09-18T12:44:15;21.90;99.90
50570;DHT22;36525;49.398;7.614;2023-09-18T12:46:44;21.90;99.90
50570;DHT22;36525;49.398;7.614;2023-09-18T12:49:22;21.80;99.90
50570;DHT22;36525;49.398;7.614;2023-09-18T12:51:59;22.00;99.90
50570;DHT22;36525;49.398;7.614;2023-09-18T12:54:43;22.20;99.90
50570;DHT22;36525;49.398;7.614;2023-09-18T12:57:21;22.20;99.90
50570;DHT22;36525;49.398;7.614;2023-09-18T12:59:48;22.30;99.90
50570;DHT22;36525;49.398;7.614;2023-09-18T13:02:21;22.80;99.90
50570;DHT22;36525;49.398;7.614;2023-09-18T13:04:56;23.40;99.90
50570;DHT22;36525;49.398;7.614;2023-09-18T13:07:24;24.20;99.90
50570;DHT22;36525;49.398;7.614;2023-09-18T13:10:02;24.80;99.90
50570;DHT22;36525;49.398;7.614;2023-09-18T13:15:10;25.50;99.90
50570;DHT22;36525;49.398;7.614;2023-09-18T13:17:46;26.20;99.90
50570;DHT22;36525;49.398;7.614;2023-09-18T13:20:17;25.90;99.90
50570;DHT22;36525;49.398;7.614;2023-09-18T13:22:51;25.50;99.90
50570;DHT22;36525;49.398;7.614;2023-09-18T13:25:24;25.50;99.90
50570;DHT22;36525;49.398;7.614;2023-09-18T13:27:53;24.80;99.90
50570;DHT22;36525;49.398;7.614;2023-09-18T13:30:21;24.50;99.90
50570;DHT22;36525;49.398;7.614;2023-09-18T13:32:49;24.00;99.90
50570;DHT22;36525;49.398;7.614;2023-09-18T13:35:18;24.20;99.90
50570;DHT22;36525;49.398;7.614;2023-09-18T13:37:46;25.30;99.90
50570;DHT22;36525;49.398;7.614;2023-09-18T13:40:13;25.80;99.90
50570;DHT22;36525;49.398;7.614;2023-09-18T13:42:40;26.70;99.90
50570;DHT22;36525;49.398;7.614;2023-09-18T13:45:07;26.60;99.90
50570;DHT22;36525;49.398;7.614;2023-09-18T13:47:35;25.80;99.90
50570;DHT22;36525;49.398;7.614;2023-09-18T13:50:04;26.00;99.90
50570;DHT22;36525;49.398;7.614;2023-09-18T13:55:01;27.10;99.90
50570;DHT22;36525;49.398;7.614;2023-09-18T13:57:33;27.50;99.90
50570;DHT22;36525;49.398;7.614;2023-09-18T14:00:01;27.40;99.90
50570;DHT22;36525;49.398;7.614;2023-09-18T14:02:31;26.50;99.90
50570;DHT22;36525;49.398;7.614;2023-09-18T14:04:59;25.70;99.90
50570;DHT22;36525;49.398;7.614;2023-09-18T14:07:26;25.10;99.90
50570;DHT22;36525;49.398;7.614;2023-09-18T14:12:21;24.70;99.90
50570;DHT22;36525;49.398;7.614;2023-09-18T14:14:49;24.60;99.90
50570;DHT22;36525;49.398;7.614;2023-09-18T14:17:17;24.20;99.90
50570;DHT22;36525;49.398;7.614;2023-09-18T14:19:48;24.80;99.90
50570;DHT22;36525;49.398;7.614;2023-09-18T14:22:15;25.20;99.90
50570;DHT22;36525;49.398;7.614;2023-09-18T14:24:42;24.70;99.90
50570;DHT22;36525;49.398;7.614;2023-09-18T14:27:09;24.00;99.90
50570;DHT22;36525;49.398;7.614;2023-09-18T14:29:38;23.70;99.90
50570;DHT22;36525;49.398;7.614;2023-09-18T14:32:06;23.60;99.90
50570;DHT22;36525;49.398;7.614;2023-09-18T14:34:35;23.50;99.90
50570;DHT22;36525;49.398;7.614;2023-09-18T14:37:02;23.50;99.90
50570;DHT22;36525;49.398;7.614;2023-09-18T14:39:33;23.50;99.90
50570;DHT22;36525;49.398;7.614;2023-09-18T14:42:00;23.40;99.90
50570;DHT22;36525;49.398;7.614;2023-09-18T14:44:27;23.40;99.90
50570;DHT22;36525;49.398;7.614;2023-09-18T14:49:24;23.10;99.90
50570;DHT22;36525;49.398;7.614;2023-09-18T14:51:54;23.00;99.90
50570;DHT22;36525;49.398;7.614;2023-09-18T14:54:21;23.60;99.90
50570;DHT22;36525;49.398;7.614;2023-09-18T14:56:49;23.90;99.90
50570;DHT22;36525;49.398;7.614;2023-09-18T14:59:16;23.60;99.90
50570;DHT22;36525;49.398;7.614;2023-09-18T15:01:57;23.60;99.90
50570;DHT22;36525;49.398;7.614;2023-09-18T15:04:24;23.80;99.90
50570;DHT22;36525;49.398;7.614;2023-09-18T15:06:52;23.90;99.90
50570;DHT22;36525;49.398;7.614;2023-09-18T15:09:19;23.50;99.90
50570;DHT22;36525;49.398;7.614;2023-09-18T15:11:46;23.50;99.90
50570;DHT22;36525;49.398;7.614;2023-09-18T15:14:13;23.50;99.90
50570;DHT22;36525;49.398;7.614;2023-09-18T15:16:40;23.40;99.90
50570;DHT22;36525;49.398;7.614;2023-09-18T15:19:07;23.10;99.90
50570;DHT22;36525;49.398;7.614;2023-09-18T15:21:35;22.90;99.90
50570;DHT22;36525;49.398;7.614;2023-09-18T15:24:07;23.00;99.90
50570;DHT22;36525;49.398;7.614;2023-09-18T15:26:36;23.00;99.90
50570;DHT22;36525;49.398;7.614;2023-09-18T15:29:03;22.70;99.90
50570;DHT22;36525;49.398;7.614;2023-09-18T15:31:31;22.20;99.90
50570;DHT22;36525;49.398;7.614;2023-09-18T15:33:58;22.10;99.90
50570;DHT22;36525;49.398;7.614;2023-09-18T15:36:25;21.70;99.90
50570;DHT22;36525;49.398;7.614;2023-09-18T15:38:52;21.40;99.90
50570;DHT22;36525;49.398;7.614;2023-09-18T15:41:20;21.00;99.90
50570;DHT22;36525;49.398;7.614;2023-09-18T15:43:47;20.30;99.90
50570;DHT22;36525;49.398;7.614;2023-09-18T15:46:16;20.00;99.90
50570;DHT22;36525;49.398;7.614;2023-09-18T15:48:46;19.90;99.90
50570;DHT22;36525;49.398;7.614;2023-09-18T15:51:13;19.80;99.90
50570;DHT22;36525;49.398;7.614;2023-09-18T15:53:41;19.80;99.90
50570;DHT22;36525;49.398;7.614;2023-09-18T15:56:08;19.90;99.90
50570;DHT22;36525;49.398;7.614;2023-09-18T15:58:35;20.00;99.90
50570;DHT22;36525;49.398;7.614;2023-09-18T16:01:02;20.10;99.90
50570;DHT22;36525;49.398;7.614;2023-09-18T16:03:39;20.10;99.90
50570;DHT22;36525;49.398;7.614;2023-09-18T16:06:15;20.10;99.90
50570;DHT22;36525;49.398;7.614;2023-09-18T16:08:45;20.00;99.90
50570;DHT22;36525;49.398;7.614;2023-09-18T16:11:12;19.80;99.90
50570;DHT22;36525;49.398;7.614;2023-09-18T16:13:42;19.60;99.90